Time;durP1;ratioP1;P1;durP2;ratioP2;P2;SDS_P1;SDS_P2;PMS_P1;PMS_P2;Temp;Humidity;BMP_temperature;BMP_pressure;BME280_temperature;BME280_humidity;BME280_pressure;Samples;Min_cycle;Max_cycle;Signal;HPM_P1;HPM_P2
2023/05/14 00:00:40;;;;;;;;;;;;;;;22.52;50.00;102199.31;5096494;27;9143;-58
2023/05/14 00:03:06;;;;;;;;;;;;;;;22.51;50.17;102192.00;5076858;28;15949;-57
2023/05/14 00:05:33;;;;;;;;;;;;;;;22.54;50.38;102196.19;5080656;28;11215;-58
2023/05/14 00:08:00;;;;;;;;;;;;;;;22.52;50.63;102187.22;5100088;28;12269;-57
2023/05/14 00:10:27;;;;;;;;;;;;;;;22.50;50.68;102193.13;5080412;28;12561;-58
2023/05/14 00:12:54;;;;;;;;;;;;;;;22.49;50.74;102182.97;5082800;28;8213;-58
2023/05/14 00:15:21;;;;;;;;;;;;;;;22.44;51.00;102180.19;5078067;28;7318;-58
2023/05/14 00:17:47;;;;;;;;;;;;;;;22.39;51.21;102183.06;5090466;27;14640;-57
2023/05/14 00:20:14;;;;;;;;;;;;;;;22.35;51.80;102178.31;5095802;28;7380;-58
2023/05/14 00:22:41;;;;;;;;;;;;;;;22.31;51.73;102168.72;5081189;28;9490;-58
2023/05/14 00:25:08;;;;;;;;;;;;;;;22.28;51.98;102170.16;5087467;28;11590;-58
2023/05/14 00:27:36;;;;;;;;;;;;;;;22.22;52.06;102162.03;5081231;28;9837;-58
2023/05/14 00:30:03;;;;;;;;;;;;;;;22.16;52.36;102159.28;5093671;28;14250;-58
2023/05/14 00:32:30;;;;;;;;;;;;;;;22.13;52.26;102154.19;5097101;28;7988;-58
2023/05/14 00:34:57;;;;;;;;;;;;;;;22.11;52.47;102141.56;5097337;28;10104;-58
2023/05/14 00:37:23;;;;;;;;;;;;;;;22.10;52.62;102148.31;5091757;27;10922;-57
2023/05/14 00:39:50;;;;;;;;;;;;;;;22.11;52.58;102148.03;5080997;28;10551;-57
2023/05/14 00:42:17;;;;;;;;;;;;;;;22.08;52.90;102142.97;5083760;27;5498;-57
2023/05/14 00:44:43;;;;;;;;;;;;;;;22.05;53.09;102142.72;5104467;27;9545;-58
2023/05/14 00:47:10;;;;;;;;;;;;;;;22.04;53.01;102146.66;5079962;27;11828;-57
2023/05/14 00:49:38;;;;;;;;;;;;;;;22.02;53.18;102132.88;5101590;27;10559;-58
2023/05/14 00:52:06;;;;;;;;;;;;;;;21.98;53.17;102133.75;5085438;27;8492;-58
2023/05/14 00:54:33;;;;;;;;;;;;;;;21.97;52.98;102135.72;5073572;27;5900;-58
2023/05/14 00:57:01;;;;;;;;;;;;;;;21.96;53.30;102131.22;5084467;27;9753;-58
2023/05/14 00:59:27;;;;;;;;;;;;;;;21.94;53.29;102135.47;5072696;27;9565;-57
2023/05/14 01:01:54;;;;;;;;;;;;;;;21.93;53.08;102145.03;5098329;27;16666;-58
2023/05/14 01:04:20;;;;;;;;;;;;;;;21.89;53.45;102129.84;5086001;27;14743;-58
2023/05/14 01:06:51;;;;;;;;;;;;;;;21.87;53.45;102127.31;5100527;27;10815;-58
2023/05/14 01:09:20;;;;;;;;;;;;;;;21.86;53.46;102121.94;5098680;27;5453;-58
2023/05/14 01:11:53;;;;;;;;;;;;;;;21.83;53.38;102114.09;5072968;27;10039;-58
2023/05/14 01:14:22;;;;;;;;;;;;;;;21.80;53.42;102129.59;5083931;27;11599;-58
2023/05/14 01:16:51;;;;;;;;;;;;;;;21.81;53.22;102127.59;5098910;27;9751;-58
2023/05/14 01:19:21;;;;;;;;;;;;;;;21.78;53.45;102119.75;5099134;27;8011;-58
2023/05/14 01:21:47;;;;;;;;;;;;;;;21.74;53.47;102120.34;5104447;27;11220;-57
2023/05/14 01:24:14;;;;;;;;;;;;;;;21.71;53.57;102118.06;5080823;27;8949;-58
2023/05/14 01:26:41;;;;;;;;;;;;;;;21.71;53.87;102114.44;5084238;27;9433;-58
2023/05/14 01:29:16;;;;;;;;;;;;;;;21.67;53.72;102116.97;5082553;27;9263;-58
2023/05/14 01:31:44;;;;;;;;;;;;;;;21.67;53.69;102113.31;5079432;27;10587;-57
2023/05/14 01:34:12;;;;;;;;;;;;;;;21.66;53.54;102106.88;5096571;27;7776;-58
2023/05/14 01:36:40;;;;;;;;;;;;;;;21.63;53.74;102101.81;5083334;27;7799;-58
2023/05/14 01:39:08;;;;;;;;;;;;;;;21.62;53.66;102110.53;5098091;27;11008;-58
2023/05/14 01:41:36;;;;;;;;;;;;;;;21.58;53.94;102104.63;5083594;27;7773;-58
2023/05/14 01:44:02;;;;;;;;;;;;;;;21.55;54.10;102098.75;5095972;28;11435;-58
2023/05/14 01:46:32;;;;;;;;;;;;;;;21.57;54.13;102102.13;5096744;28;11824;-58
2023/05/14 01:48:59;;;;;;;;;;;;;;;21.54;54.30;102099.88;5076932;28;7293;-58
2023/05/14 01:51:26;;;;;;;;;;;;;;;21.52;54.21;102099.34;5073395;28;9318;-58
2023/05/14 01:53:52;;;;;;;;;;;;;;;21.49;54.15;102106.34;5080293;28;7318;-57
2023/05/14 01:56:20;;;;;;;;;;;;;;;21.48;54.33;102107.50;5092953;28;7758;-57
2023/05/14 01:58:49;;;;;;;;;;;;;;;21.46;54.23;102106.94;5079227;28;9140;-57
2023/05/14 02:01:16;;;;;;;;;;;;;;;21.44;54.23;102103.56;5078086;28;7382;-57
2023/05/14 02:03:42;;;;;;;;;;;;;;;21.45;54.35;102099.63;5077712;28;10380;-57
2023/05/14 02:06:09;;;;;;;;;;;;;;;21.43;54.62;102101.06;5097637;28;9254;-57
2023/05/14 02:08:36;;;;;;;;;;;;;;;21.43;54.54;102106.69;5080796;28;9251;-57
2023/05/14 02:11:02;;;;;;;;;;;;;;;21.40;54.42;102098.78;5072044;28;10377;-57
2023/05/14 02:13:29;;;;;;;;;;;;;;;21.39;54.58;102103.59;5097735;28;10083;-57
2023/05/14 02:15:56;;;;;;;;;;;;;;;21.38;54.77;102107.53;5079366;28;7957;-57
2023/05/14 02:18:23;;;;;;;;;;;;;;;21.37;54.78;102108.66;5078848;28;9762;-57
2023/05/14 02:20:50;;;;;;;;;;;;;;;21.35;54.78;102096.84;5075547;28;5377;-57
2023/05/14 02:23:16;;;;;;;;;;;;;;;21.35;54.64;102098.84;5097912;28;7824;-57
2023/05/14 02:25:43;;;;;;;;;;;;;;;21.33;54.55;102095.47;5095370;28;9419;-57
2023/05/14 02:28:10;;;;;;;;;;;;;;;21.32;55.00;102091.81;5090037;27;7768;-58
2023/05/14 02:30:39;;;;;;;;;;;;;;;21.30;55.02;102086.44;5077135;28;13726;-57
2023/05/14 02:33:05;;;;;;;;;;;;;;;21.29;55.00;102083.94;5088057;27;5447;-57
2023/05/14 02:35:32;;;;;;;;;;;;;;;21.30;55.10;102082.81;5085169;27;8858;-57
2023/05/14 02:37:59;;;;;;;;;;;;;;;21.29;54.99;102078.31;5079964;28;7749;-57
2023/05/14 02:40:25;;;;;;;;;;;;;;;21.27;55.09;102075.78;5078902;28;9453;-57
2023/05/14 02:42:52;;;;;;;;;;;;;;;21.27;55.06;102072.13;5076245;28;9891;-57
2023/05/14 02:45:18;;;;;;;;;;;;;;;21.24;55.23;102065.13;5055147;28;7747;-58
2023/05/14 02:47:45;;;;;;;;;;;;;;;21.26;55.17;102064.81;5064135;28;9110;-57
2023/05/14 02:50:12;;;;;;;;;;;;;;;21.23;55.11;102065.41;5065797;28;11846;-58
2023/05/14 02:52:39;;;;;;;;;;;;;;;21.22;55.40;102058.94;5059122;28;11186;-57
2023/05/14 02:55:06;;;;;;;;;;;;;;;21.20;55.34;102066.00;5064120;28;10075;-57
2023/05/14 02:57:32;;;;;;;;;;;;;;;21.19;55.22;102061.47;5058875;28;10062;-57
2023/05/14 02:59:59;;;;;;;;;;;;;;;21.17;55.48;102058.94;5073193;28;9247;-57
2023/05/14 03:02:26;;;;;;;;;;;;;;;21.17;55.44;102055.28;5058480;28;8299;-58
2023/05/14 03:04:53;;;;;;;;;;;;;;;21.16;55.41;102051.66;5074263;28;8283;-57
2023/05/14 03:07:20;;;;;;;;;;;;;;;21.14;55.26;102051.09;5051812;28;9027;-57
2023/05/14 03:09:46;;;;;;;;;;;;;;;21.14;55.49;102047.44;5058012;28;10658;-57
2023/05/14 03:12:13;;;;;;;;;;;;;;;21.15;55.46;102049.97;5074848;28;7762;-57
2023/05/14 03:14:40;;;;;;;;;;;;;;;21.12;55.22;102050.50;5054276;28;7802;-57
2023/05/14 03:17:06;;;;;;;;;;;;;;;21.12;55.56;102050.50;5067635;28;9468;-57
2023/05/14 03:19:33;;;;;;;;;;;;;;;21.10;55.55;102057.53;5054246;28;9014;-57
2023/05/14 03:22:00;;;;;;;;;;;;;;;21.10;55.49;102054.75;5078643;28;7512;-57
2023/05/14 03:24:26;;;;;;;;;;;;;;;21.06;55.42;102045.19;5050868;28;9249;-57
2023/05/14 03:26:53;;;;;;;;;;;;;;;21.07;55.21;102044.06;5067108;28;7953;-57
2023/05/14 03:29:19;;;;;;;;;;;;;;;21.03;55.63;102037.34;5058084;28;10554;-57
2023/05/14 03:31:46;;;;;;;;;;;;;;;21.01;55.19;102037.63;5059944;28;9008;-57
2023/05/14 03:34:13;;;;;;;;;;;;;;;21.01;55.51;102037.63;5057444;28;7521;-57
2023/05/14 03:36:39;;;;;;;;;;;;;;;21.00;55.45;102030.31;5077267;28;7815;-57
2023/05/14 03:39:08;;;;;;;;;;;;;;;20.99;55.39;102044.63;5057302;28;8188;-57
2023/05/14 03:41:36;;;;;;;;;;;;;;;20.96;55.36;102040.44;5060833;28;11081;-58
2023/05/14 03:44:05;;;;;;;;;;;;;;;20.97;55.19;102035.66;5078068;28;6428;-56
2023/05/14 03:46:32;;;;;;;;;;;;;;;20.95;55.51;102027.50;5081289;28;8032;-57
2023/05/14 03:48:58;;;;;;;;;;;;;;;20.94;55.44;102036.25;5082061;28;10579;-57
2023/05/14 03:51:25;;;;;;;;;;;;;;;20.93;55.43;102032.59;5096823;28;16785;-57
2023/05/14 03:53:51;;;;;;;;;;;;;;;20.90;55.35;102033.16;5078898;28;8036;-57
2023/05/14 03:56:18;;;;;;;;;;;;;;;20.89;55.26;102025.03;5099345;28;8022;-57
2023/05/14 03:58:45;;;;;;;;;;;;;;;20.90;55.45;102021.91;5082582;28;6410;-57
2023/05/14 04:01:11;;;;;;;;;;;;;;;20.87;55.62;102022.47;5078761;28;10014;-57
2023/05/14 04:03:40;;;;;;;;;;;;;;;20.85;55.63;102030.34;5082213;28;7996;-56
2023/05/14 04:06:07;;;;;;;;;;;;;;;20.82;55.57;102023.34;5080770;28;9902;-56
2023/05/14 04:08:34;;;;;;;;;;;;;;;20.80;55.34;102022.75;5082509;28;7801;-57
2023/05/14 04:11:00;;;;;;;;;;;;;;;20.82;55.38;102028.94;5098980;28;7303;-57
2023/05/14 04:13:27;;;;;;;;;;;;;;;20.81;55.46;102018.84;5078504;28;10033;-57
2023/05/14 04:15:54;;;;;;;;;;;;;;;20.79;55.83;102023.06;5098522;28;11961;-57
2023/05/14 04:18:20;;;;;;;;;;;;;;;20.77;55.72;102019.69;5098834;28;8949;-57
2023/05/14 04:20:47;;;;;;;;;;;;;;;20.76;55.50;102023.63;5077331;28;7759;-57
2023/05/14 04:23:14;;;;;;;;;;;;;;;20.76;55.66;102034.84;5098226;28;9517;-57
2023/05/14 04:25:40;;;;;;;;;;;;;;;20.75;55.59;102034.03;5097424;28;10071;-57
2023/05/14 04:28:07;;;;;;;;;;;;;;;20.74;55.74;102025.88;5098018;27;7778;-57
2023/05/14 04:30:34;;;;;;;;;;;;;;;20.74;56.02;102015.50;5079079;28;9027;-57
2023/05/14 04:33:01;;;;;;;;;;;;;;;20.73;55.72;102016.63;5081724;28;13909;-57
2023/05/14 04:35:28;;;;;;;;;;;;;;;20.71;56.18;102013.28;5077193;28;11079;-58
2023/05/14 04:37:54;;;;;;;;;;;;;;;20.70;55.98;102017.19;5077708;28;15135;-57
2023/05/14 04:40:21;;;;;;;;;;;;;;;20.70;55.77;102021.97;5114639;27;9326;-57
2023/05/14 04:42:49;;;;;;;;;;;;;;;20.70;55.85;102019.16;5080863;28;9899;-58
2023/05/14 04:45:15;;;;;;;;;;;;;;;20.68;56.11;102022.25;5114745;27;6680;-57
2023/05/14 04:47:42;;;;;;;;;;;;;;;20.69;55.80;102012.69;5072715;28;10266;-57
2023/05/14 04:50:09;;;;;;;;;;;;;;;20.67;55.77;102019.72;5080096;28;14080;-57
2023/05/14 04:52:36;;;;;;;;;;;;;;;20.65;55.91;102011.59;5095770;28;7788;-57
2023/05/14 04:55:03;;;;;;;;;;;;;;;20.65;56.04;102019.16;5080663;28;11351;-57
2023/05/14 04:57:30;;;;;;;;;;;;;;;20.63;55.62;102012.97;5087458;28;17570;-57
2023/05/14 04:59:57;;;;;;;;;;;;;;;20.59;55.74;102011.84;5080341;27;13961;-57
2023/05/14 05:02:23;;;;;;;;;;;;;;;20.58;55.57;102011.00;5097989;28;7733;-58
2023/05/14 05:04:50;;;;;;;;;;;;;;;20.60;55.63;102011.59;5076711;28;9755;-57
2023/05/14 05:07:16;;;;;;;;;;;;;;;20.58;55.58;102011.00;5097742;28;5467;-57
2023/05/14 05:09:43;;;;;;;;;;;;;;;20.58;55.65;102011.00;5098883;28;6468;-57
2023/05/14 05:12:12;;;;;;;;;;;;;;;20.59;55.63;102023.94;5081251;28;8165;-57
2023/05/14 05:14:39;;;;;;;;;;;;;;;20.56;55.57;102021.72;5077308;28;11839;-57
2023/05/14 05:17:05;;;;;;;;;;;;;;;20.56;55.61;102027.31;5080415;28;5440;-57
2023/05/14 05:19:32;;;;;;;;;;;;;;;20.54;55.57;102020.28;5096531;28;7852;-57
2023/05/14 05:22:09;;;;;;;;;;;;;;;20.53;55.74;102021.44;5096759;28;9886;-57
2023/05/14 05:24:35;;;;;;;;;;;;;;;20.53;55.50;102018.63;5095491;28;9444;-57
2023/05/14 05:27:04;;;;;;;;;;;;;;;20.51;55.38;102027.31;5097480;28;9598;-57
2023/05/14 05:29:33;;;;;;;;;;;;;;;20.48;55.44;102015.81;5079503;28;10494;-57
2023/05/14 05:32:00;;;;;;;;;;;;;;;20.50;55.42;102019.16;5096745;28;8067;-57
2023/05/14 05:34:27;;;;;;;;;;;;;;;20.49;55.55;102029.56;5094473;28;5680;-57
2023/05/14 05:36:53;;;;;;;;;;;;;;;20.47;55.45;102031.81;5095600;28;9996;-56
2023/05/14 05:39:20;;;;;;;;;;;;;;;20.48;55.48;102038.28;5092991;27;6640;-58
2023/05/14 05:41:47;;;;;;;;;;;;;;;20.48;55.74;102029.84;5079740;28;8011;-57
2023/05/14 05:44:13;;;;;;;;;;;;;;;20.46;55.92;102020.84;5096399;28;11689;-58
2023/05/14 05:46:40;;;;;;;;;;;;;;;20.46;55.75;102020.84;5096177;28;10009;-58
2023/05/14 05:49:09;;;;;;;;;;;;;;;20.44;55.91;102009.94;5081011;28;7447;-57
2023/05/14 05:51:38;;;;;;;;;;;;;;;20.44;55.82;102015.56;5098511;27;11438;-58
2023/05/14 05:54:04;;;;;;;;;;;;;;;20.42;55.94;102010.22;5080345;28;9290;-57
2023/05/14 05:56:31;;;;;;;;;;;;;;;20.43;55.83;102022.28;5079593;28;9761;-57
2023/05/14 05:58:57;;;;;;;;;;;;;;;20.42;55.76;102014.97;5079803;28;12014;-57
2023/05/14 06:01:25;;;;;;;;;;;;;;;20.41;56.01;102016.94;5094518;27;8017;-57
2023/05/14 06:03:52;;;;;;;;;;;;;;;20.41;55.89;102013.28;5077453;28;13915;-57
2023/05/14 06:06:18;;;;;;;;;;;;;;;20.39;55.92;102013.59;5079350;28;13905;-57
2023/05/14 06:08:45;;;;;;;;;;;;;;;20.41;56.01;101999.25;5096761;28;5859;-57
2023/05/14 06:11:12;;;;;;;;;;;;;;;20.40;55.79;102005.97;5076562;28;13916;-56
2023/05/14 06:13:38;;;;;;;;;;;;;;;20.38;55.96;102008.25;5072143;28;15146;-57
2023/05/14 06:16:05;;;;;;;;;;;;;;;20.39;56.01;102001.50;5095210;28;9915;-57
2023/05/14 06:18:32;;;;;;;;;;;;;;;20.38;55.94;101994.22;5079155;28;7791;-57
2023/05/14 06:20:59;;;;;;;;;;;;;;;20.34;56.01;101993.09;5094833;28;14621;-57
2023/05/14 06:23:25;;;;;;;;;;;;;;;20.34;55.90;101991.13;5080391;28;12359;-57
2023/05/14 06:25:52;;;;;;;;;;;;;;;20.33;55.98;101991.41;5078114;28;9450;-57
2023/05/14 06:28:19;;;;;;;;;;;;;;;20.31;55.67;101990.81;5081319;28;11290;-57
2023/05/14 06:30:48;;;;;;;;;;;;;;;20.32;55.72;101986.91;5077695;28;9662;-58
2023/05/14 06:33:15;;;;;;;;;;;;;;;20.32;55.72;101998.13;5072398;28;6237;-58
2023/05/14 06:35:42;;;;;;;;;;;;;;;20.32;55.97;102001.78;5095421;28;12658;-57
2023/05/14 06:38:09;;;;;;;;;;;;;;;20.31;56.01;101990.81;5072849;28;11292;-57
2023/05/14 06:40:36;;;;;;;;;;;;;;;20.32;55.98;101986.91;5079604;28;13237;-57
2023/05/14 06:43:05;;;;;;;;;;;;;;;20.30;56.21;101994.78;5080581;28;7465;-58
2023/05/14 06:45:32;;;;;;;;;;;;;;;20.28;56.00;101991.38;5092668;28;9104;-58
2023/05/14 06:47:58;;;;;;;;;;;;;;;20.28;56.34;101989.41;5094346;28;7320;-58
2023/05/14 06:50:25;;;;;;;;;;;;;;;20.29;55.97;101984.63;5079300;28;7314;-58
2023/05/14 06:52:52;;;;;;;;;;;;;;;20.29;56.00;101990.25;5083442;28;8338;-58
2023/05/14 06:55:19;;;;;;;;;;;;;;;20.27;56.08;101981.25;5098757;28;7311;-57
2023/05/14 06:57:45;;;;;;;;;;;;;;;20.26;55.89;101977.59;5099583;28;9245;-58
2023/05/14 07:00:15;;;;;;;;;;;;;;;20.26;56.20;101974.81;5081215;28;9604;-58
2023/05/14 07:02:41;;;;;;;;;;;;;;;20.24;56.07;101973.41;5074271;28;13940;-57
2023/05/14 07:05:09;;;;;;;;;;;;;;;20.25;56.03;101969.50;5092966;28;8964;-58
2023/05/14 07:07:37;;;;;;;;;;;;;;;20.25;56.22;101970.34;5091889;28;7786;-57
2023/05/14 07:10:04;;;;;;;;;;;;;;;20.24;56.30;101968.66;5081576;28;8950;-57
2023/05/14 07:12:30;;;;;;;;;;;;;;;20.22;56.31;101967.22;5084027;28;8991;-58
2023/05/14 07:14:57;;;;;;;;;;;;;;;20.23;56.02;101968.91;5098179;28;5502;-57
2023/05/14 07:17:24;;;;;;;;;;;;;;;20.22;56.20;101961.63;5082560;28;7312;-57
2023/05/14 07:19:50;;;;;;;;;;;;;;;20.22;56.40;101968.06;5080768;28;9259;-57
2023/05/14 07:22:17;;;;;;;;;;;;;;;20.19;56.44;101963.03;5099309;28;10564;-57
2023/05/14 07:24:44;;;;;;;;;;;;;;;20.21;56.03;101958.00;5099391;28;7784;-57
2023/05/14 07:27:13;;;;;;;;;;;;;;;20.20;56.10;101961.06;5081722;28;7983;-57
2023/05/14 07:29:40;;;;;;;;;;;;;;;20.23;56.09;101960.50;5094851;28;7758;-57
2023/05/14 07:32:06;;;;;;;;;;;;;;;20.19;56.50;101960.22;5087625;28;5372;-58
2023/05/14 07:34:33;;;;;;;;;;;;;;;20.19;56.39;101960.22;5098972;28;8985;-58
2023/05/14 07:37:00;;;;;;;;;;;;;;;20.19;56.34;101960.22;5082295;28;8190;-58
2023/05/14 07:39:29;;;;;;;;;;;;;;;20.19;56.37;101959.38;5096186;27;8165;-58
2023/05/14 07:41:56;;;;;;;;;;;;;;;20.20;56.40;101952.66;5074129;28;7964;-57
2023/05/14 07:44:22;;;;;;;;;;;;;;;20.18;56.20;101949.28;5074359;28;8518;-58
2023/05/14 07:46:49;;;;;;;;;;;;;;;20.18;56.22;101952.09;5096850;28;7986;-57
2023/05/14 07:49:15;;;;;;;;;;;;;;;20.17;56.17;101948.44;5078498;28;5389;-57
2023/05/14 07:51:44;;;;;;;;;;;;;;;20.17;56.08;101950.44;5082071;28;5898;-58
2023/05/14 07:54:12;;;;;;;;;;;;;;;20.17;56.04;101951.22;5082218;28;7783;-57
2023/05/14 07:56:41;;;;;;;;;;;;;;;20.14;56.22;101960.22;5080897;28;9053;-57
2023/05/14 07:59:07;;;;;;;;;;;;;;;20.13;55.90;101952.94;5097970;28;12101;-57
2023/05/14 08:01:34;;;;;;;;;;;;;;;20.12;55.80;101954.06;5085635;28;12203;-57
2023/05/14 08:04:04;;;;;;;;;;;;;;;20.12;56.01;101951.28;5078548;28;7435;-58
2023/05/14 08:06:32;;;;;;;;;;;;;;;20.11;56.07;101958.00;5062106;28;10099;-58
2023/05/14 08:08:58;;;;;;;;;;;;;;;20.11;55.68;101951.53;5095930;28;9285;-57
2023/05/14 08:11:25;;;;;;;;;;;;;;;20.11;55.88;101948.72;5074570;28;12162;-57
2023/05/14 08:13:52;;;;;;;;;;;;;;;20.08;55.73;101957.72;5079304;28;7809;-57
2023/05/14 08:16:19;;;;;;;;;;;;;;;20.08;55.71;101954.91;5094403;28;11899;-57
2023/05/14 08:18:45;;;;;;;;;;;;;;;20.07;55.94;101953.22;5098349;28;7302;-57
2023/05/14 08:21:12;;;;;;;;;;;;;;;20.06;55.76;101954.34;5071525;28;9470;-57
2023/05/14 08:23:39;;;;;;;;;;;;;;;20.04;55.69;101942.53;5081023;28;7532;-57
2023/05/14 08:26:06;;;;;;;;;;;;;;;20.03;55.74;101938.94;5080187;28;12627;-57
2023/05/14 08:28:32;;;;;;;;;;;;;;;20.05;55.69;101941.44;5079079;28;6149;-57
2023/05/14 08:30:59;;;;;;;;;;;;;;;20.04;55.62;101942.53;5096321;28;6929;-58
2023/05/14 08:33:28;;;;;;;;;;;;;;;20.04;55.72;101937.78;5081426;28;7781;-57
2023/05/14 08:35:57;;;;;;;;;;;;;;;20.03;55.34;101936.13;5076688;28;8319;-58
2023/05/14 08:38:23;;;;;;;;;;;;;;;20.02;55.71;101927.97;5096177;27;7771;-58
2023/05/14 08:40:55;;;;;;;;;;;;;;;20.03;55.50;101938.94;5078972;28;12062;-57
2023/05/14 08:43:24;;;;;;;;;;;;;;;20.04;55.41;101939.75;5080527;28;10593;-57
2023/05/14 08:45:56;;;;;;;;;;;;;;;20.02;55.64;101940.03;5093959;28;8297;-57
2023/05/14 08:48:25;;;;;;;;;;;;;;;20.02;55.40;101933.59;5112572;27;7996;-57
2023/05/14 08:50:52;;;;;;;;;;;;;;;20.02;55.71;101930.78;5080186;28;10635;-57
2023/05/14 08:53:19;;;;;;;;;;;;;;;19.99;55.66;101930.22;5080359;28;11527;-56
2023/05/14 08:55:47;;;;;;;;;;;;;;;20.02;55.73;101928.81;5096048;27;6511;-57
2023/05/14 08:58:13;;;;;;;;;;;;;;;20.02;55.49;101931.63;5077667;28;6316;-57
2023/05/14 09:00:41;;;;;;;;;;;;;;;20.01;55.21;101924.31;5095746;28;7782;-57
2023/05/14 09:03:08;;;;;;;;;;;;;;;20.05;55.23;101927.41;5077103;28;12079;-57
2023/05/14 09:05:36;;;;;;;;;;;;;;;20.08;55.47;101921.25;5079047;27;7801;-57
2023/05/14 09:08:02;;;;;;;;;;;;;;;20.12;55.27;101920.41;5082606;28;10926;-56
2023/05/14 09:10:29;;;;;;;;;;;;;;;20.19;55.23;101925.72;5055718;28;7968;-56
2023/05/14 09:12:56;;;;;;;;;;;;;;;20.23;55.24;101929.63;5078972;28;10957;-57
2023/05/14 09:15:23;;;;;;;;;;;;;;;20.27;55.52;101925.97;5067273;28;5371;-56
2023/05/14 09:17:51;;;;;;;;;;;;;;;20.33;55.65;101929.66;5079864;28;9006;-57
2023/05/14 09:20:18;;;;;;;;;;;;;;;20.40;55.53;101931.03;5078488;28;7771;-57
2023/05/14 09:22:45;;;;;;;;;;;;;;;20.49;55.63;101927.69;5081749;28;10446;-57
2023/05/14 09:25:12;;;;;;;;;;;;;;;20.53;56.04;101929.63;5075200;28;9256;-57
2023/05/14 09:27:39;;;;;;;;;;;;;;;20.58;56.14;101920.34;5060437;28;10999;-57
2023/05/14 09:30:09;;;;;;;;;;;;;;;20.61;56.54;101917.81;5078394;28;12158;-56
2023/05/14 09:32:37;;;;;;;;;;;;;;;20.67;56.12;101916.63;5079354;28;9989;-57
2023/05/14 09:35:07;;;;;;;;;;;;;;;20.72;56.30;101916.63;5085025;28;10742;-57
2023/05/14 09:37:35;;;;;;;;;;;;;;;20.76;56.23;101917.72;5093356;28;7772;-56
2023/05/14 09:40:05;;;;;;;;;;;;;;;20.82;56.05;101910.13;5078596;28;11040;-56
2023/05/14 09:42:32;;;;;;;;;;;;;;;20.89;55.99;101912.66;5076772;28;9395;-58
2023/05/14 09:44:58;;;;;;;;;;;;;;;20.95;55.87;101908.66;5094239;27;7511;-57
2023/05/14 09:47:25;;;;;;;;;;;;;;;21.01;55.98;101902.75;5079248;28;9506;-57
2023/05/14 09:49:52;;;;;;;;;;;;;;;21.09;55.67;101912.53;5092931;28;15690;-56
2023/05/14 09:52:19;;;;;;;;;;;;;;;21.17;55.31;101897.91;5068103;28;15630;-57
2023/05/14 09:54:46;;;;;;;;;;;;;;;21.24;54.85;101898.44;5077609;28;10999;-57
2023/05/14 09:57:13;;;;;;;;;;;;;;;21.32;55.00;101897.81;5073867;28;9109;-57
2023/05/14 09:59:42;;;;;;;;;;;;;;;21.40;54.87;101894.41;5077427;28;11916;-57
2023/05/14 10:02:15;;;;;;;;;;;;;;;21.47;54.85;101886.50;5073951;28;14106;-57
2023/05/14 10:04:43;;;;;;;;;;;;;;;21.55;54.68;101883.06;5083349;28;8017;-57
2023/05/14 10:07:11;;;;;;;;;;;;;;;21.60;54.87;101885.81;5091115;27;9970;-58
2023/05/14 10:09:40;;;;;;;;;;;;;;;21.66;54.64;101875.38;5070208;28;9402;-57
2023/05/14 10:12:07;;;;;;;;;;;;;;;21.70;54.37;101882.94;5080534;28;10029;-57
2023/05/14 10:14:37;;;;;;;;;;;;;;;21.78;54.29;101886.25;5090098;28;7971;-57
2023/05/14 10:17:05;;;;;;;;;;;;;;;21.83;54.24;101883.38;5087514;28;10522;-57
2023/05/14 10:19:34;;;;;;;;;;;;;;;21.87;54.10;101887.28;5076118;28;8327;-57
2023/05/14 10:22:04;;;;;;;;;;;;;;;21.93;53.87;101887.00;5096156;27;10009;-57
2023/05/14 10:24:31;;;;;;;;;;;;;;;21.97;53.52;101884.44;5077390;28;9838;-57
2023/05/14 10:26:58;;;;;;;;;;;;;;;22.02;53.44;101887.19;5088673;28;12956;-57
2023/05/14 10:29:28;;;;;;;;;;;;;;;22.05;53.21;101883.78;5081657;28;9284;-57
2023/05/14 10:31:55;;;;;;;;;;;;;;;22.09;53.15;101884.88;5080307;28;10733;-57
2023/05/14 10:34:25;;;;;;;;;;;;;;;22.12;53.05;101884.28;5097497;28;7984;-57
2023/05/14 10:36:52;;;;;;;;;;;;;;;22.18;51.69;101883.09;5078637;28;7312;-56
2023/05/14 10:39:19;;;;;;;;;;;;;;;22.11;49.11;101880.63;5076438;28;13688;-57
2023/05/14 10:41:46;;;;;;;;;;;;;;;22.07;47.65;101870.25;5095364;28;14997;-57
2023/05/14 10:44:15;;;;;;;;;;;;;;;22.02;47.90;101875.94;5082449;28;13931;-57
2023/05/14 10:46:41;;;;;;;;;;;;;;;21.97;47.17;101864.72;5080827;28;12862;-57
2023/05/14 10:49:09;;;;;;;;;;;;;;;21.96;46.83;101858.25;5098891;28;8374;-57
2023/05/14 10:51:38;;;;;;;;;;;;;;;21.97;47.36;101854.31;5072155;28;9689;-57
2023/05/14 10:54:07;;;;;;;;;;;;;;;21.97;46.66;101848.69;5081141;28;12374;-58
2023/05/14 10:56:35;;;;;;;;;;;;;;;21.97;46.89;101836.59;5097851;28;11540;-57
2023/05/14 10:59:02;;;;;;;;;;;;;;;21.94;46.65;101848.44;5072286;28;11102;-57
2023/05/14 11:01:33;;;;;;;;;;;;;;;21.85;45.79;101841.75;5081592;28;16808;-57
2023/05/14 11:04:02;;;;;;;;;;;;;;;21.85;44.92;101836.94;5096353;27;17291;-57
2023/05/14 11:06:30;;;;;;;;;;;;;;;21.80;45.07;101827.72;5081564;28;14040;-57
2023/05/14 11:08:59;;;;;;;;;;;;;;;21.82;45.18;101831.06;5096376;28;16655;-57
2023/05/14 11:11:26;;;;;;;;;;;;;;;21.79;45.05;101818.44;5082459;28;8008;-57
2023/05/14 11:13:53;;;;;;;;;;;;;;;21.79;45.26;101831.66;5091056;28;10014;-56
2023/05/14 11:16:22;;;;;;;;;;;;;;;21.80;44.97;101836.16;5078167;28;10059;-57
2023/05/14 11:18:53;;;;;;;;;;;;;;;21.79;45.35;101831.66;5098994;28;11634;-56
2023/05/14 11:21:20;;;;;;;;;;;;;;;21.74;45.51;101824.97;5081166;28;11740;-57
2023/05/14 11:23:50;;;;;;;;;;;;;;;21.73;45.19;101825.25;5074447;28;12711;-56
2023/05/14 11:26:16;;;;;;;;;;;;;;;21.72;44.77;101823.56;5095355;27;10727;-56
2023/05/14 11:28:47;;;;;;;;;;;;;;;21.66;43.44;101830.38;5084019;28;14135;-56
2023/05/14 11:31:14;;;;;;;;;;;;;;;21.47;43.83;101830.25;5097536;27;13970;-56
2023/05/14 11:33:40;;;;;;;;;;;;;;;21.61;44.04;101816.38;5096210;28;10748;-56
2023/05/14 11:36:09;;;;;;;;;;;;;;;21.65;44.28;101823.06;5080039;28;16933;-56
2023/05/14 11:38:47;;;;;;;;;;;;;;;21.55;44.12;101817.53;5114563;27;7361;-56
2023/05/14 11:41:14;;;;;;;;;;;;;;;21.61;44.50;101807.94;5098535;28;11255;-57
2023/05/14 11:43:42;;;;;;;;;;;;;;;21.66;44.71;101805.06;5078258;28;11005;-56
2023/05/14 11:46:15;;;;;;;;;;;;;;;21.76;45.52;101810.56;5081809;28;8973;-56
2023/05/14 11:48:42;;;;;;;;;;;;;;;21.85;45.61;101803.16;5082170;28;12114;-56
2023/05/14 11:51:09;;;;;;;;;;;;;;;21.85;45.89;101802.34;5097494;27;10929;-56
2023/05/14 11:53:36;;;;;;;;;;;;;;;21.95;46.14;101805.06;5073999;28;9055;-57
2023/05/14 11:56:05;;;;;;;;;;;;;;;21.99;46.23;101795.75;5080419;28;15808;-57
2023/05/14 11:58:35;;;;;;;;;;;;;;;22.03;46.21;101793.19;5082552;28;15873;-57
2023/05/14 12:01:02;;;;;;;;;;;;;;;22.04;46.41;101790.06;5094147;27;11221;-57
2023/05/14 12:03:29;;;;;;;;;;;;;;;22.06;46.57;101786.97;5079209;28;7977;-57
2023/05/14 12:05:58;;;;;;;;;;;;;;;22.09;46.59;101783.53;5077501;28;9018;-57
2023/05/14 12:08:26;;;;;;;;;;;;;;;22.11;46.69;101781.28;5082281;27;7230;-57
2023/05/14 12:10:53;;;;;;;;;;;;;;;22.13;46.64;101785.47;5092868;28;7766;-57
2023/05/14 12:13:20;;;;;;;;;;;;;;;22.13;46.70;101771.38;5095475;28;9261;-57
2023/05/14 12:15:53;;;;;;;;;;;;;;;22.15;46.83;101779.53;5080730;28;11612;-57
2023/05/14 12:18:19;;;;;;;;;;;;;;;22.15;47.08;101774.75;5097152;28;10192;-57
2023/05/14 12:20:51;;;;;;;;;;;;;;;22.17;46.85;101765.97;5077308;28;17210;-57
2023/05/14 12:23:20;;;;;;;;;;;;;;;22.18;46.86;101764.84;5094528;27;9761;-57
2023/05/14 12:25:49;;;;;;;;;;;;;;;22.21;46.89;101766.25;5081953;28;7809;-57
2023/05/14 12:28:17;;;;;;;;;;;;;;;22.22;46.83;101767.91;5079743;28;7781;-57
2023/05/14 12:30:46;;;;;;;;;;;;;;;22.22;46.94;101768.75;5080789;28;7343;-57
2023/05/14 12:33:13;;;;;;;;;;;;;;;22.24;46.92;101752.41;5074912;28;7385;-57
2023/05/14 12:35:42;;;;;;;;;;;;;;;22.24;47.07;101758.03;5076670;28;7776;-57
2023/05/14 12:38:09;;;;;;;;;;;;;;;22.25;47.19;101753.25;5073556;28;12243;-58
2023/05/14 12:40:36;;;;;;;;;;;;;;;22.27;47.16;101748.13;5097238;27;9628;-57
2023/05/14 12:43:03;;;;;;;;;;;;;;;22.27;47.76;101748.13;5080955;28;8040;-57